sensor_id;sensor_type;location;lat;lon;timestamp;temperature;humidity
4293;DHT22;2160;51.172;6.808;2024-03-25T05:02:40;7.80;99.90
4293;DHT22;2160;51.172;6.808;2024-03-25T05:05:09;7.90;99.90
4293;DHT22;2160;51.172;6.808;2024-03-25T05:07:38;7.80;99.90
4293;DHT22;2160;51.172;6.808;2024-03-25T05:10:13;8.00;99.90
4293;DHT22;2160;51.172;6.808;2024-03-25T05:12:40;8.00;99.90
4293;DHT22;2160;51.172;6.808;2024-03-25T05:15:11;8.00;99.90
4293;DHT22;2160;51.172;6.808;2024-03-25T05:17:43;8.10;99.90
4293;DHT22;2160;51.172;6.808;2024-03-25T05:20:10;7.90;99.90
4293;DHT22;2160;51.172;6.808;2024-03-25T05:22:37;8.00;99.90
4293;DHT22;2160;51.172;6.808;2024-03-25T05:25:04;8.20;99.90
4293;DHT22;2160;51.172;6.808;2024-03-25T05:27:33;8.00;99.90
4293;DHT22;2160;51.172;6.808;2024-03-25T05:30:02;7.90;99.90
4293;DHT22;2160;51.172;6.808;2024-03-25T05:32:34;7.80;99.90
4293;DHT22;2160;51.172;6.808;2024-03-25T05:35:02;8.00;99.90
4293;DHT22;2160;51.172;6.808;2024-03-25T05:37:29;7.90;99.90
4293;DHT22;2160;51.172;6.808;2024-03-25T05:39:55;8.00;99.90
4293;DHT22;2160;51.172;6.808;2024-03-25T05:42:21;8.10;99.90
4293;DHT22;2160;51.172;6.808;2024-03-25T05:44:48;8.00;99.90
4293;DHT22;2160;51.172;6.808;2024-03-25T05:47:14;8.10;99.90
4293;DHT22;2160;51.172;6.808;2024-03-25T05:49:46;8.10;99.90
4293;DHT22;2160;51.172;6.808;2024-03-25T05:52:15;8.10;99.90
4293;DHT22;2160;51.172;6.808;2024-03-25T05:54:46;7.80;99.90
4293;DHT22;2160;51.172;6.808;2024-03-25T05:57:14;7.50;99.90
4293;DHT22;2160;51.172;6.808;2024-03-25T05:59:41;7.80;99.90
4293;DHT22;2160;51.172;6.808;2024-03-25T06:02:08;7.80;99.90
4293;DHT22;2160;51.172;6.808;2024-03-25T06:04:35;7.80;99.90
4293;DHT22;2160;51.172;6.808;2024-03-25T06:07:01;7.50;99.90
4293;DHT22;2160;51.172;6.808;2024-03-25T06:09:30;7.70;99.90
4293;DHT22;2160;51.172;6.808;2024-03-25T06:11:57;7.50;99.90
4293;DHT22;2160;51.172;6.808;2024-03-25T06:14:23;7.60;99.90
4293;DHT22;2160;51.172;6.808;2024-03-25T06:16:49;7.80;99.90
4293;DHT22;2160;51.172;6.808;2024-03-25T06:19:16;7.70;99.90
4293;DHT22;2160;51.172;6.808;2024-03-25T06:21:45;7.50;99.90
4293;DHT22;2160;51.172;6.808;2024-03-25T06:24:15;7.70;99.90
4293;DHT22;2160;51.172;6.808;2024-03-25T06:26:47;7.70;99.90
4293;DHT22;2160;51.172;6.808;2024-03-25T06:29:14;7.50;99.90
4293;DHT22;2160;51.172;6.808;2024-03-25T06:31:41;7.60;99.90
4293;DHT22;2160;51.172;6.808;2024-03-25T06:34:31;7.90;99.90
4293;DHT22;2160;51.172;6.808;2024-03-25T06:37:00;8.00;99.90
4293;DHT22;2160;51.172;6.808;2024-03-25T06:39:29;8.10;99.90
4293;DHT22;2160;51.172;6.808;2024-03-25T06:41:58;8.50;99.90
4293;DHT22;2160;51.172;6.808;2024-03-25T06:44:30;8.50;99.90
4293;DHT22;2160;51.172;6.808;2024-03-25T06:46:57;8.60;99.90
4293;DHT22;2160;51.172;6.808;2024-03-25T06:49:24;8.70;99.90
4293;DHT22;2160;51.172;6.808;2024-03-25T06:51:55;8.70;99.90
4293;DHT22;2160;51.172;6.808;2024-03-25T06:54:22;8.70;99.90
4293;DHT22;2160;51.172;6.808;2024-03-25T06:56:54;8.50;99.90
4293;DHT22;2160;51.172;6.808;2024-03-25T06:59:30;8.50;99.90
4293;DHT22;2160;51.172;6.808;2024-03-25T07:02:02;8.40;99.90
4293;DHT22;2160;51.172;6.808;2024-03-25T07:04:34;8.30;99.90
4293;DHT22;2160;51.172;6.808;2024-03-25T07:07:03;8.50;99.90
4293;DHT22;2160;51.172;6.808;2024-03-25T07:09:37;8.80;99.90
4293;DHT22;2160;51.172;6.808;2024-03-25T07:12:09;8.60;99.90
4293;DHT22;2160;51.172;6.808;2024-03-25T07:14:43;8.60;99.90
4293;DHT22;2160;51.172;6.808;2024-03-25T07:17:15;8.60;99.90
4293;DHT22;2160;51.172;6.808;2024-03-25T07:19:43;8.70;99.90
4293;DHT22;2160;51.172;6.808;2024-03-25T07:22:09;8.80;99.90
4293;DHT22;2160;51.172;6.808;2024-03-25T07:24:36;9.10;99.90
4293;DHT22;2160;51.172;6.808;2024-03-25T07:27:06;9.40;99.90
4293;DHT22;2160;51.172;6.808;2024-03-25T07:29:36;9.40;99.90
4293;DHT22;2160;51.172;6.808;2024-03-25T07:32:08;9.30;99.90
4293;DHT22;2160;51.172;6.808;2024-03-25T07:34:40;9.40;99.90
4293;DHT22;2160;51.172;6.808;2024-03-25T07:37:09;9.70;99.90
4293;DHT22;2160;51.172;6.808;2024-03-25T07:39:35;9.50;99.90
4293;DHT22;2160;51.172;6.808;2024-03-25T07:42:04;9.60;99.90
4293;DHT22;2160;51.172;6.808;2024-03-25T07:44:31;9.70;99.90
4293;DHT22;2160;51.172;6.808;2024-03-25T07:46:58;9.90;99.90
4293;DHT22;2160;51.172;6.808;2024-03-25T07:49:28;10.00;99.90
4293;DHT22;2160;51.172;6.808;2024-03-25T07:51:59;10.00;99.90
4293;DHT22;2160;51.172;6.808;2024-03-25T07:54:26;10.10;99.90
4293;DHT22;2160;51.172;6.808;2024-03-25T07:56:52;10.30;99.90
4293;DHT22;2160;51.172;6.808;2024-03-25T07:59:19;10.70;99.90
4293;DHT22;2160;51.172;6.808;2024-03-25T08:01:47;10.70;99.90
4293;DHT22;2160;51.172;6.808;2024-03-25T08:04:13;10.70;99.90
4293;DHT22;2160;51.172;6.808;2024-03-25T08:06:44;10.70;99.90
4293;DHT22;2160;51.172;6.808;2024-03-25T08:09:11;10.40;99.90
4293;DHT22;2160;51.172;6.808;2024-03-25T08:11:38;10.50;99.90
4293;DHT22;2160;51.172;6.808;2024-03-25T08:14:09;10.50;99.90
4293;DHT22;2160;51.172;6.808;2024-03-25T08:16:35;10.40;99.90
4293;DHT22;2160;51.172;6.808;2024-03-25T08:19:01;10.30;99.90
4293;DHT22;2160;51.172;6.808;2024-03-25T08:21:30;10.30;99.90
4293;DHT22;2160;51.172;6.808;2024-03-25T08:24:00;10.60;99.90
4293;DHT22;2160;51.172;6.808;2024-03-25T08:26:28;10.50;99.90
4293;DHT22;2160;51.172;6.808;2024-03-25T08:28:55;10.60;99.90
4293;DHT22;2160;51.172;6.808;2024-03-25T08:31:25;10.90;99.90
4293;DHT22;2160;51.172;6.808;2024-03-25T08:33:53;11.10;99.90
4293;DHT22;2160;51.172;6.808;2024-03-25T08:36:22;11.40;99.90
4293;DHT22;2160;51.172;6.808;2024-03-25T08:38:50;11.30;99.90
4293;DHT22;2160;51.172;6.808;2024-03-25T08:41:22;11.20;99.90
4293;DHT22;2160;51.172;6.808;2024-03-25T08:43:52;11.20;99.90
4293;DHT22;2160;51.172;6.808;2024-03-25T08:46:18;11.40;99.90
4293;DHT22;2160;51.172;6.808;2024-03-25T08:48:53;11.60;99.90
4293;DHT22;2160;51.172;6.808;2024-03-25T08:51:19;11.80;99.90
4293;DHT22;2160;51.172;6.808;2024-03-25T08:53:49;11.90;99.90
4293;DHT22;2160;51.172;6.808;2024-03-25T08:56:21;12.20;99.90
4293;DHT22;2160;51.172;6.808;2024-03-25T08:58:51;12.50;99.90
4293;DHT22;2160;51.172;6.808;2024-03-25T09:01:32;12.60;99.90
4293;DHT22;2160;51.172;6.808;2024-03-25T09:04:02;12.60;99.90
4293;DHT22;2160;51.172;6.808;2024-03-25T09:06:33;12.60;99.90
4293;DHT22;2160;51.172;6.808;2024-03-25T09:09:02;12.60;99.90
4293;DHT22;2160;51.172;6.808;2024-03-25T09:11:51;12.50;99.90
4293;DHT22;2160;51.172;6.808;2024-03-25T09:14:21;12.10;99.90
4293;DHT22;2160;51.172;6.808;2024-03-25T09:16:48;12.00;99.90
4293;DHT22;2160;51.172;6.808;2024-03-25T09:19:21;11.50;99.90
4293;DHT22;2160;51.172;6.808;2024-03-25T09:21:51;11.40;99.90
4293;DHT22;2160;51.172;6.808;2024-03-25T09:24:19;11.60;99.90
4293;DHT22;2160;51.172;6.808;2024-03-25T09:26:52;11.70;99.90
4293;DHT22;2160;51.172;6.808;2024-03-25T09:29:19;11.70;99.90
4293;DHT22;2160;51.172;6.808;2024-03-25T09:31:52;12.20;99.90
4293;DHT22;2160;51.172;6.808;2024-03-25T09:34:28;12.40;99.90
4293;DHT22;2160;51.172;6.808;2024-03-25T09:36:55;12.50;99.90
4293;DHT22;2160;51.172;6.808;2024-03-25T09:39:27;12.50;99.90
4293;DHT22;2160;51.172;6.808;2024-03-25T09:41:58;12.40;99.90
4293;DHT22;2160;51.172;6.808;2024-03-25T09:44:29;12.70;99.90
4293;DHT22;2160;51.172;6.808;2024-03-25T09:47:03;13.00;99.90
4293;DHT22;2160;51.172;6.808;2024-03-25T09:49:39;13.20;99.90
4293;DHT22;2160;51.172;6.808;2024-03-25T09:52:12;13.20;99.90
4293;DHT22;2160;51.172;6.808;2024-03-25T09:54:44;13.20;99.90
4293;DHT22;2160;51.172;6.808;2024-03-25T09:57:16;13.20;99.90
4293;DHT22;2160;51.172;6.808;2024-03-25T09:59:47;13.40;99.90
4293;DHT22;2160;51.172;6.808;2024-03-25T10:02:20;13.40;99.90
4293;DHT22;2160;51.172;6.808;2024-03-25T10:04:48;13.50;99.70
4293;DHT22;2160;51.172;6.808;2024-03-25T10:07:22;13.80;99.90
4293;DHT22;2160;51.172;6.808;2024-03-25T10:09:56;14.10;99.90
4293;DHT22;2160;51.172;6.808;2024-03-25T10:12:30;14.20;99.90
4293;DHT22;2160;51.172;6.808;2024-03-25T10:15:04;14.30;99.90
4293;DHT22;2160;51.172;6.808;2024-03-25T10:17:38;14.10;99.90
4293;DHT22;2160;51.172;6.808;2024-03-25T10:20:07;14.30;99.90
4293;DHT22;2160;51.172;6.808;2024-03-25T10:22:45;14.50;99.90
4293;DHT22;2160;51.172;6.808;2024-03-25T10:25:22;14.70;98.60
4293;DHT22;2160;51.172;6.808;2024-03-25T10:27:59;14.50;97.30
4293;DHT22;2160;51.172;6.808;2024-03-25T10:30:34;14.40;99.00
4293;DHT22;2160;51.172;6.808;2024-03-25T10:33:13;14.60;99.90
4293;DHT22;2160;51.172;6.808;2024-03-25T10:35:40;14.80;99.70
4293;DHT22;2160;51.172;6.808;2024-03-25T10:38:13;14.70;97.10
4293;DHT22;2160;51.172;6.808;2024-03-25T10:40:43;14.60;96.70
4293;DHT22;2160;51.172;6.808;2024-03-25T10:43:22;14.60;96.50
4293;DHT22;2160;51.172;6.808;2024-03-25T10:46:01;14.60;95.80
4293;DHT22;2160;51.172;6.808;2024-03-25T10:48:36;14.80;96.60
4293;DHT22;2160;51.172;6.808;2024-03-25T10:51:05;14.70;95.00
4293;DHT22;2160;51.172;6.808;2024-03-25T10:53:43;14.80;96.30
4293;DHT22;2160;51.172;6.808;2024-03-25T10:56:22;14.80;97.20
4293;DHT22;2160;51.172;6.808;2024-03-25T10:58:55;15.00;97.00
4293;DHT22;2160;51.172;6.808;2024-03-25T11:01:28;15.20;97.50
4293;DHT22;2160;51.172;6.808;2024-03-25T11:04:00;14.70;94.40
4293;DHT22;2160;51.172;6.808;2024-03-25T11:06:31;15.00;96.10
4293;DHT22;2160;51.172;6.808;2024-03-25T11:09:06;15.30;95.50
4293;DHT22;2160;51.172;6.808;2024-03-25T11:11:39;15.20;93.90
4293;DHT22;2160;51.172;6.808;2024-03-25T11:14:30;15.20;93.20
4293;DHT22;2160;51.172;6.808;2024-03-25T11:17:13;15.50;94.30
4293;DHT22;2160;51.172;6.808;2024-03-25T11:19:43;15.60;93.50
4293;DHT22;2160;51.172;6.808;2024-03-25T11:22:14;15.50;92.90
4293;DHT22;2160;51.172;6.808;2024-03-25T11:24:44;15.40;92.60
4293;DHT22;2160;51.172;6.808;2024-03-25T11:27:13;15.40;91.70
4293;DHT22;2160;51.172;6.808;2024-03-25T11:29:49;15.90;93.90
4293;DHT22;2160;51.172;6.808;2024-03-25T11:32:21;16.40;93.20
4293;DHT22;2160;51.172;6.808;2024-03-25T11:34:53;16.20;90.30
4293;DHT22;2160;51.172;6.808;2024-03-25T11:37:28;16.10;87.00
4293;DHT22;2160;51.172;6.808;2024-03-25T11:40:05;16.10;89.00
4293;DHT22;2160;51.172;6.808;2024-03-25T11:42:48;16.50;90.70
4293;DHT22;2160;51.172;6.808;2024-03-25T11:45:26;17.00;91.70
4293;DHT22;2160;51.172;6.808;2024-03-25T11:47:56;16.90;82.50
4293;DHT22;2160;51.172;6.808;2024-03-25T11:50:28;17.00;87.20
4293;DHT22;2160;51.172;6.808;2024-03-25T11:53:03;16.80;85.20
4293;DHT22;2160;51.172;6.808;2024-03-25T11:55:37;16.10;80.00
4293;DHT22;2160;51.172;6.808;2024-03-25T11:58:08;16.10;86.70
4293;DHT22;2160;51.172;6.808;2024-03-25T12:00:51;16.20;89.60
4293;DHT22;2160;51.172;6.808;2024-03-25T12:03:21;16.70;89.40
4293;DHT22;2160;51.172;6.808;2024-03-25T12:05:57;16.10;81.50
4293;DHT22;2160;51.172;6.808;2024-03-25T12:08:24;16.50;87.40
4293;DHT22;2160;51.172;6.808;2024-03-25T12:10:53;16.60;86.00
4293;DHT22;2160;51.172;6.808;2024-03-25T12:13:49;16.10;82.30
4293;DHT22;2160;51.172;6.808;2024-03-25T12:16:18;16.40;90.30
4293;DHT22;2160;51.172;6.808;2024-03-25T12:18:50;16.80;84.00
4293;DHT22;2160;51.172;6.808;2024-03-25T12:21:24;16.70;80.30
4293;DHT22;2160;51.172;6.808;2024-03-25T12:23:55;16.70;81.30
4293;DHT22;2160;51.172;6.808;2024-03-25T12:26:25;16.90;77.20
4293;DHT22;2160;51.172;6.808;2024-03-25T12:28:56;17.00;80.10
4293;DHT22;2160;51.172;6.808;2024-03-25T12:31:31;17.50;83.00
4293;DHT22;2160;51.172;6.808;2024-03-25T12:34:09;17.40;77.00
4293;DHT22;2160;51.172;6.808;2024-03-25T12:36:42;17.90;81.20
4293;DHT22;2160;51.172;6.808;2024-03-25T12:39:15;17.50;70.00
4293;DHT22;2160;51.172;6.808;2024-03-25T12:41:47;17.70;76.40
4293;DHT22;2160;51.172;6.808;2024-03-25T12:44:22;18.00;76.40
4293;DHT22;2160;51.172;6.808;2024-03-25T12:46:57;18.30;74.90
4293;DHT22;2160;51.172;6.808;2024-03-25T12:49:29;18.40;66.00
4293;DHT22;2160;51.172;6.808;2024-03-25T12:52:10;18.70;67.40
4293;DHT22;2160;51.172;6.808;2024-03-25T12:54:39;19.10;64.90
4293;DHT22;2160;51.172;6.808;2024-03-25T12:57:09;19.20;60.90
4293;DHT22;2160;51.172;6.808;2024-03-25T12:59:42;19.10;59.10
4293;DHT22;2160;51.172;6.808;2024-03-25T13:02:19;19.40;56.80
4293;DHT22;2160;51.172;6.808;2024-03-25T13:04:49;20.40;64.90
4293;DHT22;2160;51.172;6.808;2024-03-25T13:07:19;21.10;57.50
4293;DHT22;2160;51.172;6.808;2024-03-25T13:10:01;21.90;52.50
4293;DHT22;2160;51.172;6.808;2024-03-25T13:12:36;22.60;50.30
4293;DHT22;2160;51.172;6.808;2024-03-25T13:15:07;23.30;48.60
4293;DHT22;2160;51.172;6.808;2024-03-25T13:17:44;22.60;44.80
4293;DHT22;2160;51.172;6.808;2024-03-25T13:20:14;22.40;44.70
4293;DHT22;2160;51.172;6.808;2024-03-25T13:22:44;21.90;41.00
4293;DHT22;2160;51.172;6.808;2024-03-25T13:25:17;21.80;50.10
4293;DHT22;2160;51.172;6.808;2024-03-25T13:27:57;22.10;45.70
4293;DHT22;2160;51.172;6.808;2024-03-25T13:30:27;22.00;42.90
4293;DHT22;2160;51.172;6.808;2024-03-25T13:33:06;21.90;41.70
4293;DHT22;2160;51.172;6.808;2024-03-25T13:35:35;22.00;44.30
4293;DHT22;2160;51.172;6.808;2024-03-25T13:38:05;22.10;38.90
4293;DHT22;2160;51.172;6.808;2024-03-25T13:40:38;23.00;40.20
4293;DHT22;2160;51.172;6.808;2024-03-25T13:43:14;23.80;39.10
4293;DHT22;2160;51.172;6.808;2024-03-25T13:45:46;25.10;38.80
4293;DHT22;2160;51.172;6.808;2024-03-25T13:48:18;26.20;37.10
4293;DHT22;2160;51.172;6.808;2024-03-25T13:50:58;27.20;32.90
4293;DHT22;2160;51.172;6.808;2024-03-25T13:53:40;27.60;32.40
4293;DHT22;2160;51.172;6.808;2024-03-25T13:56:18;29.20;30.50
4293;DHT22;2160;51.172;6.808;2024-03-25T13:58:50;29.40;27.20
4293;DHT22;2160;51.172;6.808;2024-03-25T14:01:23;30.40;25.60
4293;DHT22;2160;51.172;6.808;2024-03-25T14:03:59;30.20;23.20
4293;DHT22;2160;51.172;6.808;2024-03-25T14:06:40;30.60;23.40
4293;DHT22;2160;51.172;6.808;2024-03-25T14:09:27;31.70;22.90
4293;DHT22;2160;51.172;6.808;2024-03-25T14:12:01;31.80;20.80
4293;DHT22;2160;51.172;6.808;2024-03-25T14:14:31;31.80;18.60
4293;DHT22;2160;51.172;6.808;2024-03-25T14:17:06;31.80;20.50
4293;DHT22;2160;51.172;6.808;2024-03-25T14:19:45;33.00;20.40
4293;DHT22;2160;51.172;6.808;2024-03-25T14:22:17;33.80;18.40
4293;DHT22;2160;51.172;6.808;2024-03-25T14:24:56;34.70;19.50
4293;DHT22;2160;51.172;6.808;2024-03-25T14:27:40;35.30;16.50
4293;DHT22;2160;51.172;6.808;2024-03-25T14:30:13;35.60;14.80
4293;DHT22;2160;51.172;6.808;2024-03-25T14:32:46;35.00;13.20
4293;DHT22;2160;51.172;6.808;2024-03-25T14:35:36;35.70;13.30
4293;DHT22;2160;51.172;6.808;2024-03-25T14:38:14;35.70;14.10
4293;DHT22;2160;51.172;6.808;2024-03-25T14:40:57;35.30;13.20
4293;DHT22;2160;51.172;6.808;2024-03-25T14:43:32;35.00;11.30
4293;DHT22;2160;51.172;6.808;2024-03-25T14:46:06;35.30;12.10
4293;DHT22;2160;51.172;6.808;2024-03-25T14:48:36;35.70;9.80
4293;DHT22;2160;51.172;6.808;2024-03-25T14:51:21;34.80;10.60
4293;DHT22;2160;51.172;6.808;2024-03-25T14:53:57;35.70;11.40
4293;DHT22;2160;51.172;6.808;2024-03-25T14:56:29;36.00;11.60
4293;DHT22;2160;51.172;6.808;2024-03-25T14:58:59;36.90;10.60
4293;DHT22;2160;51.172;6.808;2024-03-25T15:01:35;36.50;7.90
4293;DHT22;2160;51.172;6.808;2024-03-25T15:04:17;37.00;8.90
4293;DHT22;2160;51.172;6.808;2024-03-25T15:07:01;36.40;8.80
4293;DHT22;2160;51.172;6.808;2024-03-25T15:09:45;37.00;9.70
4293;DHT22;2160;51.172;6.808;2024-03-25T15:12:18;37.30;9.70
4293;DHT22;2160;51.172;6.808;2024-03-25T15:14:56;37.80;9.00
4293;DHT22;2160;51.172;6.808;2024-03-25T15:17:26;38.00;9.00
4293;DHT22;2160;51.172;6.808;2024-03-25T15:20:04;37.40;8.90
4293;DHT22;2160;51.172;6.808;2024-03-25T15:22:48;37.10;7.40
4293;DHT22;2160;51.172;6.808;2024-03-25T15:25:27;36.40;8.80
4293;DHT22;2160;51.172;6.808;2024-03-25T15:27:58;34.00;9.10
4293;DHT22;2160;51.172;6.808;2024-03-25T15:30:33;31.30;9.70
4293;DHT22;2160;51.172;6.808;2024-03-25T15:33:11;28.60;11.50
4293;DHT22;2160;51.172;6.808;2024-03-25T15:35:52;26.50;13.40
4293;DHT22;2160;51.172;6.808;2024-03-25T15:38:29;25.10;15.40
4293;DHT22;2160;51.172;6.808;2024-03-25T15:40:56;24.00;15.60
4293;DHT22;2160;51.172;6.808;2024-03-25T15:43:28;22.80;16.70
4293;DHT22;2160;51.172;6.808;2024-03-25T15:46:06;22.00;18.00
4293;DHT22;2160;51.172;6.808;2024-03-25T15:48:33;21.50;19.70
4293;DHT22;2160;51.172;6.808;2024-03-25T15:51:00;20.90;19.00
4293;DHT22;2160;51.172;6.808;2024-03-25T15:53:32;20.40;18.10
4293;DHT22;2160;51.172;6.808;2024-03-25T15:56:02;20.10;19.80
4293;DHT22;2160;51.172;6.808;2024-03-25T15:58:32;19.70;19.20
4293;DHT22;2160;51.172;6.808;2024-03-25T16:01:00;19.20;19.50
4293;DHT22;2160;51.172;6.808;2024-03-25T16:03:27;18.80;19.50
4293;DHT22;2160;51.172;6.808;2024-03-25T16:05:59;18.60;20.40
4293;DHT22;2160;51.172;6.808;2024-03-25T16:08:33;18.10;20.50
4293;DHT22;2160;51.172;6.808;2024-03-25T16:11:03;18.00;23.90
4293;DHT22;2160;51.172;6.808;2024-03-25T16:13:32;17.90;22.70
4293;DHT22;2160;51.172;6.808;2024-03-25T16:16:05;17.60;22.30
4293;DHT22;2160;51.172;6.808;2024-03-25T16:18:31;17.50;23.70
4293;DHT22;2160;51.172;6.808;2024-03-25T16:20:58;17.20;24.60
4293;DHT22;2160;51.172;6.808;2024-03-25T16:23:27;17.30;25.20
4293;DHT22;2160;51.172;6.808;2024-03-25T16:25:55;17.30;25.50
4293;DHT22;2160;51.172;6.808;2024-03-25T16:28:22;17.10;24.30
4293;DHT22;2160;51.172;6.808;2024-03-25T16:30:48;16.90;24.20
4293;DHT22;2160;51.172;6.808;2024-03-25T16:33:15;16.40;22.60
4293;DHT22;2160;51.172;6.808;2024-03-25T16:35:42;16.20;22.70
4293;DHT22;2160;51.172;6.808;2024-03-25T16:38:09;16.00;23.00
4293;DHT22;2160;51.172;6.808;2024-03-25T16:40:36;16.00;25.30
4293;DHT22;2160;51.172;6.808;2024-03-25T16:43:10;16.10;25.90
4293;DHT22;2160;51.172;6.808;2024-03-25T16:45:41;16.20;26.10
4293;DHT22;2160;51.172;6.808;2024-03-25T16:48:13;16.30;23.50
4293;DHT22;2160;51.172;6.808;2024-03-25T16:50:43;16.30;25.80
4293;DHT22;2160;51.172;6.808;2024-03-25T16:53:18;16.30;25.20
4293;DHT22;2160;51.172;6.808;2024-03-25T16:55:49;16.10;24.60
4293;DHT22;2160;51.172;6.808;2024-03-25T16:58:18;16.10;25.40
4293;DHT22;2160;51.172;6.808;2024-03-25T17:00:44;16.20;26.30
4293;DHT22;2160;51.172;6.808;2024-03-25T17:03:11;16.20;27.00
4293;DHT22;2160;51.172;6.808;2024-03-25T17:05:37;16.00;25.40
4293;DHT22;2160;51.172;6.808;2024-03-25T17:08:04;15.90;27.10
4293;DHT22;2160;51.172;6.808;2024-03-25T17:10:30;15.80;25.20
4293;DHT22;2160;51.172;6.808;2024-03-25T17:12:56;15.70;25.30
4293;DHT22;2160;51.172;6.808;2024-03-25T17:15:24;15.70;26.30
4293;DHT22;2160;51.172;6.808;2024-03-25T17:17:51;15.50;24.80
4293;DHT22;2160;51.172;6.808;2024-03-25T17:20:17;15.10;24.40
4293;DHT22;2160;51.172;6.808;2024-03-25T17:22:43;15.00;25.20
4293;DHT22;2160;51.172;6.808;2024-03-25T17:25:09;15.00;27.00
4293;DHT22;2160;51.172;6.808;2024-03-25T17:27:36;15.00;25.80
4293;DHT22;2160;51.172;6.808;2024-03-25T17:30:02;14.90;25.80
4293;DHT22;2160;51.172;6.808;2024-03-25T17:32:29;14.90;27.40
4293;DHT22;2160;51.172;6.808;2024-03-25T17:34:56;14.70;26.10
4293;DHT22;2160;51.172;6.808;2024-03-25T17:37:22;14.80;28.00
4293;DHT22;2160;51.172;6.808;2024-03-25T17:39:48;14.70;27.00
4293;DHT22;2160;51.172;6.808;2024-03-25T17:42:14;14.50;26.80
4293;DHT22;2160;51.172;6.808;2024-03-25T17:44:40;14.40;28.90
4293;DHT22;2160;51.172;6.808;2024-03-25T17:47:06;14.30;28.10
4293;DHT22;2160;51.172;6.808;2024-03-25T17:49:33;14.20;29.30
4293;DHT22;2160;51.172;6.808;2024-03-25T17:51:59;14.30;28.10
4293;DHT22;2160;51.172;6.808;2024-03-25T17:54:25;14.10;29.10
4293;DHT22;2160;51.172;6.808;2024-03-25T17:56:52;13.90;28.30
4293;DHT22;2160;51.172;6.808;2024-03-25T17:59:19;13.90;28.80
4293;DHT22;2160;51.172;6.808;2024-03-25T18:01:45;13.90;29.50
4293;DHT22;2160;51.172;6.808;2024-03-25T18:04:11;13.70;28.90
4293;DHT22;2160;51.172;6.808;2024-03-25T18:06:39;13.60;29.30
4293;DHT22;2160;51.172;6.808;2024-03-25T18:09:05;13.50;29.10
4293;DHT22;2160;51.172;6.808;2024-03-25T18:11:31;13.60;30.80
4293;DHT22;2160;51.172;6.808;2024-03-25T18:13:58;13.60;29.80
4293;DHT22;2160;51.172;6.808;2024-03-25T18:16:24;13.40;30.00
4293;DHT22;2160;51.172;6.808;2024-03-25T18:18:50;13.40;30.00
4293;DHT22;2160;51.172;6.808;2024-03-25T18:21:16;13.40;32.30
4293;DHT22;2160;51.172;6.808;2024-03-25T18:23:43;13.30;30.60
4293;DHT22;2160;51.172;6.808;2024-03-25T18:26:09;13.30;30.90
4293;DHT22;2160;51.172;6.808;2024-03-25T18:28:35;13.20;30.70
4293;DHT22;2160;51.172;6.808;2024-03-25T18:31:01;13.00;30.80
4293;DHT22;2160;51.172;6.808;2024-03-25T18:33:27;13.10;32.10
4293;DHT22;2160;51.172;6.808;2024-03-25T18:35:53;12.90;32.70
4293;DHT22;2160;51.172;6.808;2024-03-25T18:38:25;13.00;33.10
4293;DHT22;2160;51.172;6.808;2024-03-25T18:40:52;13.00;32.70
4293;DHT22;2160;51.172;6.808;2024-03-25T18:43:18;13.00;33.00
4293;DHT22;2160;51.172;6.808;2024-03-25T18:45:45;13.00;33.40
4293;DHT22;2160;51.172;6.808;2024-03-25T18:48:11;12.90;33.10
4293;DHT22;2160;51.172;6.808;2024-03-25T18:50:37;12.70;32.50
4293;DHT22;2160;51.172;6.808;2024-03-25T18:53:03;12.60;34.20
4293;DHT22;2160;51.172;6.808;2024-03-25T18:55:29;12.60;34.00
4293;DHT22;2160;51.172;6.808;2024-03-25T18:57:57;12.60;33.90
4293;DHT22;2160;51.172;6.808;2024-03-25T19:00:23;12.50;33.60
4293;DHT22;2160;51.172;6.808;2024-03-25T19:02:49;12.60;34.70
4293;DHT22;2160;51.172;6.808;2024-03-25T19:05:15;12.40;34.30
4293;DHT22;2160;51.172;6.808;2024-03-25T19:07:41;12.40;33.80
4293;DHT22;2160;51.172;6.808;2024-03-25T19:10:08;12.30;34.00
4293;DHT22;2160;51.172;6.808;2024-03-25T19:12:34;12.30;35.10
4293;DHT22;2160;51.172;6.808;2024-03-25T19:15:02;12.30;35.60
4293;DHT22;2160;51.172;6.808;2024-03-25T19:17:28;12.20;34.90
4293;DHT22;2160;51.172;6.808;2024-03-25T19:19:54;12.20;35.10
4293;DHT22;2160;51.172;6.808;2024-03-25T19:22:20;12.30;36.60
4293;DHT22;2160;51.172;6.808;2024-03-25T19:24:46;12.20;36.60
4293;DHT22;2160;51.172;6.808;2024-03-25T19:27:12;12.30;36.20
4293;DHT22;2160;51.172;6.808;2024-03-25T19:29:38;12.30;36.40
4293;DHT22;2160;51.172;6.808;2024-03-25T19:32:07;12.20;38.40
4293;DHT22;2160;51.172;6.808;2024-03-25T19:34:33;12.10;36.60
4293;DHT22;2160;51.172;6.808;2024-03-25T19:36:59;12.10;37.60
4293;DHT22;2160;51.172;6.808;2024-03-25T19:39:25;12.10;38.00
4293;DHT22;2160;51.172;6.808;2024-03-25T19:41:51;12.00;37.80
4293;DHT22;2160;51.172;6.808;2024-03-25T19:44:17;11.80;36.80
4293;DHT22;2160;51.172;6.808;2024-03-25T19:46:43;11.80;38.30
4293;DHT22;2160;51.172;6.808;2024-03-25T19:49:10;11.80;39.30
4293;DHT22;2160;51.172;6.808;2024-03-25T19:51:36;11.80;38.80
4293;DHT22;2160;51.172;6.808;2024-03-25T19:54:02;11.80;41.00
4293;DHT22;2160;51.172;6.808;2024-03-25T19:56:30;11.60;39.20
4293;DHT22;2160;51.172;6.808;2024-03-25T19:58:56;11.60;39.70
4293;DHT22;2160;51.172;6.808;2024-03-25T20:01:22;11.50;41.60
4293;DHT22;2160;51.172;6.808;2024-03-25T20:03:48;11.50;41.90
4293;DHT22;2160;51.172;6.808;2024-03-25T20:06:15;11.50;40.60
4293;DHT22;2160;51.172;6.808;2024-03-25T20:08:42;11.50;41.50
4293;DHT22;2160;51.172;6.808;2024-03-25T20:11:08;11.50;41.40
4293;DHT22;2160;51.172;6.808;2024-03-25T20:13:34;11.40;40.60
4293;DHT22;2160;51.172;6.808;2024-03-25T20:16:00;11.40;40.90
4293;DHT22;2160;51.172;6.808;2024-03-25T20:18:26;11.50;42.20
4293;DHT22;2160;51.172;6.808;2024-03-25T20:20:52;11.50;41.00
4293;DHT22;2160;51.172;6.808;2024-03-25T20:23:20;11.40;41.70
4293;DHT22;2160;51.172;6.808;2024-03-25T20:25:46;11.40;41.50
4293;DHT22;2160;51.172;6.808;2024-03-25T20:28:12;11.30;40.00
4293;DHT22;2160;51.172;6.808;2024-03-25T20:30:38;11.20;40.50
4293;DHT22;2160;51.172;6.808;2024-03-25T20:33:05;11.20;41.20
4293;DHT22;2160;51.172;6.808;2024-03-25T20:35:32;11.40;42.60
4293;DHT22;2160;51.172;6.808;2024-03-25T20:37:58;11.40;41.50
4293;DHT22;2160;51.172;6.808;2024-03-25T20:40:25;11.30;41.40
4293;DHT22;2160;51.172;6.808;2024-03-25T20:42:51;11.20;43.90
4293;DHT22;2160;51.172;6.808;2024-03-25T20:45:17;11.40;45.30
4293;DHT22;2160;51.172;6.808;2024-03-25T20:47:43;11.40;44.70
4293;DHT22;2160;51.172;6.808;2024-03-25T20:50:10;11.40;44.40
4293;DHT22;2160;51.172;6.808;2024-03-25T20:52:36;11.30;44.50
4293;DHT22;2160;51.172;6.808;2024-03-25T20:55:02;11.40;44.30
4293;DHT22;2160;51.172;6.808;2024-03-25T20:57:29;11.40;45.50
4293;DHT22;2160;51.172;6.808;2024-03-25T20:59:55;11.30;45.60
4293;DHT22;2160;51.172;6.808;2024-03-25T21:02:22;11.30;44.30
4293;DHT22;2160;51.172;6.808;2024-03-25T21:04:48;11.20;45.70
4293;DHT22;2160;51.172;6.808;2024-03-25T21:07:14;11.10;45.30
4293;DHT22;2160;51.172;6.808;2024-03-25T21:09:40;11.10;46.30
4293;DHT22;2160;51.172;6.808;2024-03-25T21:12:06;11.10;45.90
4293;DHT22;2160;51.172;6.808;2024-03-25T21:14:34;11.00;45.90
4293;DHT22;2160;51.172;6.808;2024-03-25T21:17:00;11.10;46.20
4293;DHT22;2160;51.172;6.808;2024-03-25T21:19:26;11.10;45.50
4293;DHT22;2160;51.172;6.808;2024-03-25T21:21:52;11.00;46.80
4293;DHT22;2160;51.172;6.808;2024-03-25T21:24:18;11.00;48.10
4293;DHT22;2160;51.172;6.808;2024-03-25T21:26:44;11.00;47.10